createdAt,value
2024-03-02T00:16:50.786Z,100.00
2024-03-02T00:19:55.813Z,100.00
2024-03-02T00:23:00.588Z,100.00
2024-03-02T00:49:56.178Z,98.71
2024-03-02T00:58:59.930Z,100.00
2024-03-02T01:02:27.890Z,100.00
2024-03-02T01:05:22.519Z,100.00
2024-03-02T01:08:08.114Z,100.00
2024-03-02T01:11:24.108Z,100.00
2024-03-02T01:14:24.505Z,100.00
2024-03-02T01:17:22.238Z,100.00
2024-03-02T01:47:45.012Z,93.19
2024-03-02T01:57:19.580Z,95.49
2024-03-02T02:03:05.368Z,95.72
2024-03-02T02:12:15.886Z,97.52
2024-03-02T02:15:26.271Z,97.95
2024-03-02T02:22:13.710Z,99.72
2024-03-02T02:27:23.326Z,100.00
2024-03-02T02:30:18.545Z,100.00
2024-03-02T02:33:19.830Z,100.00
2024-03-02T02:35:45.482Z,97.47
2024-03-02T02:38:16.504Z,97.80
2024-03-02T02:40:46.056Z,97.96
2024-03-02T02:43:14.782Z,97.99
2024-03-02T02:45:45.630Z,97.64
2024-03-02T02:48:19.850Z,97.12
2024-03-02T02:50:50.974Z,97.01
2024-03-02T02:53:18.939Z,97.08
2024-03-02T02:55:47.444Z,97.33
2024-03-02T03:00:45.527Z,96.59
2024-03-02T03:03:13.750Z,97.40
2024-03-02T03:05:42.737Z,98.07
2024-03-02T03:08:13.528Z,97.16
2024-03-02T03:10:42.309Z,97.00
2024-03-02T03:13:13.661Z,96.70
2024-03-02T03:15:44.437Z,96.65
2024-03-02T03:18:15.139Z,96.32
2024-03-02T03:20:45.904Z,95.70
2024-03-02T03:23:17.353Z,95.76
2024-03-02T03:25:45.945Z,95.57
2024-03-02T03:28:13.864Z,95.52
2024-03-02T03:30:45.126Z,96.12
2024-03-02T03:33:13.062Z,96.17
2024-03-02T03:35:40.991Z,96.25
2024-03-02T03:38:08.876Z,96.30
2024-03-02T03:40:36.838Z,96.72
2024-03-02T03:43:05.252Z,96.59
2024-03-02T03:45:45.561Z,96.41
2024-03-02T03:48:45.647Z,96.06
2024-03-02T03:51:13.727Z,95.88
2024-03-02T03:53:43.989Z,95.52
2024-03-02T03:56:12.267Z,95.33
2024-03-02T03:58:40.289Z,95.15
2024-03-02T04:01:08.575Z,94.81
2024-03-02T04:06:10.154Z,94.39
2024-03-02T04:08:43.626Z,94.12
2024-03-02T04:11:11.997Z,93.72
2024-03-02T04:13:40.288Z,93.76
2024-03-02T04:16:10.282Z,93.03
2024-03-02T04:18:39.074Z,93.52
2024-03-02T04:21:07.412Z,92.50
2024-03-02T04:23:35.390Z,92.34
2024-03-02T04:26:03.877Z,91.97
2024-03-02T04:28:35.066Z,91.44
2024-03-02T04:31:03.604Z,90.94
2024-03-02T04:33:31.727Z,90.36
2024-03-02T04:36:01.539Z,90.08
2024-03-02T04:38:36.877Z,89.38
2024-03-02T04:41:04.826Z,89.22
2024-03-02T04:43:33.809Z,88.46
2024-03-02T04:46:12.895Z,88.23
2024-03-02T04:48:43.824Z,88.11
2024-03-02T04:51:11.823Z,87.87
2024-03-02T04:53:43.062Z,87.25
2024-03-02T04:56:49.150Z,87.13
2024-03-02T04:59:17.602Z,87.21
2024-03-02T05:01:45.701Z,87.28
2024-03-02T05:04:13.698Z,86.96
2024-03-02T05:06:54.663Z,87.12
2024-03-02T05:09:26.029Z,87.16
2024-03-02T05:12:31.244Z,86.96
2024-03-02T05:14:59.547Z,86.73
2024-03-02T05:17:27.446Z,86.63
2024-03-02T05:19:55.332Z,86.75
2024-03-02T05:22:23.271Z,86.59
2024-03-02T05:24:51.251Z,86.33
2024-03-02T05:27:19.216Z,86.50
2024-03-02T05:29:47.132Z,86.47
2024-03-02T05:32:15.077Z,86.45
2024-03-02T05:34:43.122Z,86.46
2024-03-02T05:37:11.242Z,86.19
2024-03-02T05:39:39.254Z,86.12
2024-03-02T05:42:07.908Z,86.32
2024-03-02T05:44:35.805Z,86.17
2024-03-02T05:47:05.147Z,86.01
2024-03-02T05:49:33.289Z,86.19
2024-03-02T05:52:01.480Z,86.08
2024-03-02T05:54:29.904Z,86.05
2024-03-02T05:56:57.851Z,86.30
2024-03-02T05:59:25.753Z,86.16
2024-03-02T06:01:53.925Z,86.08
2024-03-02T06:04:21.877Z,86.02
2024-03-02T06:06:51.549Z,86.08
2024-03-02T06:09:19.983Z,86.15
2024-03-02T06:11:48.433Z,86.14
2024-03-02T06:14:16.305Z,86.05
2024-03-02T06:16:44.211Z,86.16
2024-03-02T06:19:12.176Z,86.11
2024-03-02T06:21:40.187Z,85.83
2024-03-02T06:24:08.452Z,85.53
2024-03-02T06:26:36.516Z,85.69
2024-03-02T06:29:04.777Z,85.75
2024-03-02T06:31:32.780Z,85.64
2024-03-02T06:34:00.967Z,85.52
2024-03-02T06:36:32.000Z,85.24
2024-03-02T06:39:00.114Z,85.46
2024-03-02T06:41:28.747Z,85.76
2024-03-02T06:44:01.641Z,85.60
2024-03-02T06:46:29.662Z,85.42
2024-03-02T06:48:57.734Z,85.19
2024-03-02T06:51:25.831Z,85.11
2024-03-02T06:53:53.761Z,85.07
2024-03-02T06:56:21.742Z,84.73
2024-03-02T06:58:49.775Z,84.83
2024-03-02T07:01:17.832Z,84.89
2024-03-02T07:03:46.152Z,84.56
2024-03-02T07:06:14.125Z,84.40
2024-03-02T07:08:42.034Z,84.08
2024-03-02T07:11:09.977Z,84.15
2024-03-02T07:13:37.929Z,84.01
2024-03-02T07:16:06.042Z,83.98
2024-03-02T07:18:35.406Z,83.89
2024-03-02T07:21:03.345Z,83.95
2024-03-02T07:23:32.224Z,84.16
2024-03-02T07:28:34.228Z,83.95
2024-03-02T07:31:03.094Z,83.84
2024-03-02T07:33:31.322Z,83.63
2024-03-02T07:36:04.231Z,83.77
2024-03-02T07:38:33.797Z,83.72
2024-03-02T07:41:02.492Z,83.51
2024-03-02T07:43:30.732Z,83.31
2024-03-02T07:45:59.093Z,83.40
2024-03-02T07:48:29.596Z,83.92
2024-03-02T07:50:57.951Z,83.70
2024-03-02T07:53:25.952Z,84.01
2024-03-02T07:55:53.958Z,83.61
2024-03-02T07:58:21.973Z,83.76
2024-03-02T08:00:51.727Z,83.05
2024-03-02T08:03:21.346Z,82.38
2024-03-02T08:05:49.238Z,82.09
2024-03-02T08:08:20.231Z,82.36
2024-03-02T08:10:48.290Z,82.45
2024-03-02T08:13:16.309Z,83.36
2024-03-02T08:15:44.290Z,82.38
2024-03-02T08:18:12.366Z,82.55
2024-03-02T08:20:43.226Z,82.55
2024-03-02T08:23:11.281Z,82.62
2024-03-02T08:25:39.308Z,82.74
2024-03-02T08:28:07.564Z,82.30
2024-03-02T08:30:35.622Z,82.33
2024-03-02T08:33:03.578Z,82.62
2024-03-02T08:35:31.690Z,82.13
2024-03-02T08:37:59.789Z,82.21
2024-03-02T08:40:27.715Z,82.08
2024-03-02T08:42:55.847Z,82.24
2024-03-02T08:45:27.105Z,81.77
2024-03-02T08:47:55.085Z,81.56
2024-03-02T08:50:23.173Z,82.17
2024-03-02T08:52:51.174Z,82.16
2024-03-02T08:55:19.313Z,82.58
2024-03-02T08:57:53.513Z,82.56
2024-03-02T09:00:21.788Z,82.03
2024-03-02T09:02:51.609Z,81.80
2024-03-02T09:05:19.556Z,81.99
2024-03-02T09:07:49.388Z,81.58
2024-03-02T09:10:17.856Z,82.02
2024-03-02T09:12:45.859Z,81.55
2024-03-02T09:15:13.824Z,81.84
2024-03-02T09:17:42.404Z,81.46
2024-03-02T09:20:13.348Z,81.60
2024-03-02T09:22:41.243Z,82.71
2024-03-02T09:25:10.644Z,82.44
2024-03-02T09:27:39.676Z,82.14
2024-03-02T09:30:10.072Z,81.80
2024-03-02T09:32:38.859Z,81.70
2024-03-02T09:35:07.380Z,81.68
2024-03-02T09:37:35.731Z,82.13
2024-03-02T09:40:04.014Z,81.84
2024-03-02T09:42:32.384Z,81.43
2024-03-02T09:45:00.459Z,81.48
2024-03-02T09:47:28.381Z,81.69
2024-03-02T09:50:03.644Z,81.54
2024-03-02T09:52:33.103Z,81.54
2024-03-02T09:55:01.088Z,81.67
2024-03-02T09:57:29.155Z,81.12
2024-03-02T09:59:57.067Z,81.30
2024-03-02T10:02:25.175Z,81.58
2024-03-02T10:04:53.107Z,81.30
2024-03-02T10:07:21.652Z,81.15
2024-03-02T10:09:50.750Z,81.29
2024-03-02T10:12:19.526Z,81.06
2024-03-02T10:14:47.759Z,81.13
2024-03-02T10:17:17.399Z,81.46
2024-03-02T10:19:45.265Z,81.47
2024-03-02T10:22:13.267Z,81.26
2024-03-02T10:24:41.257Z,81.33
2024-03-02T10:27:19.930Z,81.10
2024-03-02T10:29:49.151Z,80.80
2024-03-02T10:32:17.569Z,81.07
2024-03-02T10:34:47.025Z,80.89
2024-03-02T10:37:15.174Z,80.59
2024-03-02T10:39:43.183Z,80.99
2024-03-02T10:42:11.469Z,80.23
2024-03-02T10:44:39.734Z,79.69
2024-03-02T10:47:07.720Z,79.92
2024-03-02T10:49:35.775Z,79.95
2024-03-02T10:52:04.195Z,79.66
2024-03-02T10:54:38.541Z,79.70
2024-03-02T10:57:07.601Z,80.38
2024-03-02T10:59:37.407Z,81.03
2024-03-02T11:02:06.833Z,81.01
2024-03-02T11:04:36.837Z,81.07
2024-03-02T11:07:06.510Z,80.91
2024-03-02T11:09:39.418Z,80.65
2024-03-02T11:12:21.506Z,80.37
2024-03-02T11:14:49.437Z,80.56
2024-03-02T11:17:20.514Z,81.06
2024-03-02T11:19:49.490Z,80.29
2024-03-02T11:22:17.862Z,79.98
2024-03-02T11:24:53.619Z,80.55
2024-03-02T11:27:40.190Z,80.09
2024-03-02T11:30:09.149Z,79.48
2024-03-02T11:32:37.211Z,78.96
2024-03-02T11:35:05.325Z,79.04
2024-03-02T11:37:33.285Z,79.16
2024-03-02T11:40:01.391Z,79.66
2024-03-02T11:42:29.493Z,79.74
2024-03-02T11:44:58.794Z,79.85
2024-03-02T11:47:34.826Z,79.59
2024-03-02T11:50:03.789Z,79.23
2024-03-02T11:52:35.184Z,79.40
2024-03-02T11:55:05.469Z,79.21
2024-03-02T11:57:33.740Z,78.61
2024-03-02T12:00:03.284Z,78.64
2024-03-02T12:02:31.296Z,79.67
2024-03-02T12:04:59.462Z,79.04
2024-03-02T12:07:30.292Z,78.92
2024-03-02T12:10:05.515Z,78.97
2024-03-02T12:12:37.214Z,79.19
2024-03-02T12:15:05.370Z,79.01
2024-03-02T12:17:33.302Z,78.59
2024-03-02T12:20:01.222Z,78.66
2024-03-02T12:22:29.158Z,78.34
2024-03-02T12:24:57.178Z,77.77
2024-03-02T12:27:25.210Z,77.65
2024-03-02T12:29:53.093Z,77.79
2024-03-02T12:32:21.412Z,77.87
2024-03-02T12:34:49.766Z,77.21
2024-03-02T12:37:24.863Z,77.27
2024-03-02T12:39:53.168Z,77.31
2024-03-02T12:42:21.110Z,77.41
2024-03-02T12:44:49.216Z,77.30
2024-03-02T12:47:17.193Z,77.52
2024-03-02T12:49:48.124Z,77.39
2024-03-02T12:52:16.367Z,77.32
2024-03-02T12:54:44.430Z,77.11
2024-03-02T12:57:18.956Z,77.60
2024-03-02T12:59:49.901Z,77.73
2024-03-02T13:02:26.625Z,77.75
2024-03-02T13:04:58.465Z,77.68
2024-03-02T13:07:27.599Z,77.91
2024-03-02T13:10:00.334Z,78.16
2024-03-02T13:12:28.303Z,78.46
2024-03-02T13:14:56.500Z,78.29
2024-03-02T13:17:24.544Z,78.08
2024-03-02T13:19:55.206Z,78.21
2024-03-02T13:22:23.624Z,78.15
2024-03-02T13:24:59.479Z,78.01
2024-03-02T13:27:27.445Z,77.97
2024-03-02T13:29:56.460Z,77.83
2024-03-02T13:32:26.243Z,77.66
2024-03-02T13:34:54.838Z,77.56
2024-03-02T13:37:23.409Z,78.05
2024-03-02T13:39:51.456Z,78.05
2024-03-02T13:42:19.772Z,78.18
2024-03-02T13:44:50.168Z,78.51
2024-03-02T13:47:18.085Z,78.44
2024-03-02T13:49:48.659Z,78.59
2024-03-02T13:52:16.914Z,78.56
2024-03-02T13:54:48.735Z,78.69
2024-03-02T13:57:28.403Z,77.72
2024-03-02T13:59:56.768Z,77.17
2024-03-02T14:02:28.415Z,77.03
2024-03-02T14:04:56.448Z,76.35
2024-03-02T14:07:24.399Z,76.16
2024-03-02T14:09:52.378Z,76.54
2024-03-02T14:12:24.375Z,76.65
2024-03-02T14:14:55.371Z,76.01
2024-03-02T14:17:24.687Z,76.00
2024-03-02T14:19:56.454Z,76.08
2024-03-02T14:22:24.406Z,75.57
2024-03-02T14:24:57.859Z,75.65
2024-03-02T14:27:37.592Z,75.50
2024-03-02T14:30:18.550Z,74.90
2024-03-02T14:32:51.413Z,72.70
2024-03-02T14:35:27.469Z,71.60
2024-03-02T14:37:59.868Z,71.52
2024-03-02T14:40:29.559Z,70.76
2024-03-02T14:42:57.512Z,70.21
2024-03-02T14:45:26.102Z,69.17
2024-03-02T14:47:56.173Z,69.31
2024-03-02T14:50:29.747Z,69.87
2024-03-02T14:53:01.404Z,69.82
2024-03-02T14:55:29.761Z,70.25
2024-03-02T14:57:57.756Z,70.94
2024-03-02T15:00:25.934Z,71.37
2024-03-02T15:02:54.268Z,71.19
2024-03-02T15:05:24.899Z,69.65
2024-03-02T15:07:56.078Z,67.11
2024-03-02T15:10:24.054Z,67.01
2024-03-02T15:12:52.209Z,68.43
2024-03-02T15:18:26.642Z,68.23
2024-03-02T15:20:54.629Z,68.75
2024-03-02T15:25:52.836Z,69.87
2024-03-02T15:28:20.948Z,69.39
2024-03-02T15:30:55.907Z,69.25
2024-03-02T15:36:56.531Z,68.95
2024-03-02T15:40:41.802Z,69.53
2024-03-02T15:45:06.625Z,68.62
2024-03-02T15:47:56.098Z,70.78
2024-03-02T15:51:06.120Z,70.45
2024-03-02T15:53:53.333Z,69.78
2024-03-02T15:56:22.277Z,69.83
2024-03-02T16:01:19.008Z,70.16
2024-03-02T16:03:55.493Z,69.78
2024-03-02T16:07:02.568Z,69.88
2024-03-02T16:12:55.005Z,70.13
2024-03-02T16:23:03.074Z,64.39
2024-03-02T16:27:01.688Z,62.76
2024-03-02T16:40:09.133Z,65.58
2024-03-02T16:42:52.240Z,67.36
2024-03-02T16:45:22.573Z,67.18
2024-03-02T16:47:53.257Z,66.08
2024-03-02T16:50:21.430Z,65.81
2024-03-02T16:56:08.824Z,66.10
2024-03-02T16:58:55.969Z,65.98
2024-03-02T17:06:03.898Z,67.96
2024-03-02T17:11:51.792Z,66.91
2024-03-02T17:20:24.770Z,65.99
2024-03-02T17:23:20.899Z,64.95
2024-03-02T17:29:27.038Z,66.47
2024-03-02T17:32:20.326Z,65.20
2024-03-02T17:35:26.409Z,65.49
2024-03-02T17:38:53.720Z,65.06
2024-03-02T17:41:22.011Z,65.38
2024-03-02T17:51:18.527Z,63.02
2024-03-02T17:54:29.709Z,62.38
2024-03-02T18:00:29.596Z,62.62
2024-03-02T18:06:26.358Z,64.29
2024-03-02T18:09:23.944Z,64.35
2024-03-02T18:11:52.017Z,65.44
2024-03-02T18:14:20.254Z,65.99
2024-03-02T18:16:49.905Z,63.65
2024-03-02T18:22:31.172Z,63.95
2024-03-02T18:40:54.113Z,57.44
2024-03-02T18:43:50.300Z,57.64
2024-03-02T18:46:18.566Z,57.59
2024-03-02T18:55:54.472Z,59.63
2024-03-02T19:17:19.193Z,55.78
2024-03-02T19:19:52.422Z,54.72
2024-03-02T19:22:21.000Z,56.54
2024-03-02T19:24:48.906Z,56.40
2024-03-02T19:27:19.771Z,54.41
2024-03-02T19:29:55.981Z,57.04
2024-03-02T19:32:48.032Z,55.49
2024-03-02T19:35:17.957Z,55.34
2024-03-02T19:37:48.631Z,56.24
2024-03-02T19:40:19.628Z,57.43
2024-03-02T19:42:48.485Z,58.51
2024-03-02T19:45:18.460Z,60.46
2024-03-02T19:47:49.524Z,61.06
2024-03-02T19:50:19.623Z,60.55
2024-03-02T19:52:47.825Z,60.72
2024-03-02T19:55:22.381Z,61.18
2024-03-02T19:57:52.926Z,60.78
2024-03-02T20:00:20.908Z,60.78
2024-03-02T20:02:49.212Z,58.83
2024-03-02T20:05:17.637Z,61.09
2024-03-02T20:07:52.869Z,61.13
2024-03-02T20:10:22.153Z,61.96
2024-03-02T20:12:50.318Z,61.71
2024-03-02T20:15:20.611Z,59.00
2024-03-02T20:17:48.699Z,59.45
2024-03-02T20:20:18.643Z,58.50
2024-03-02T20:23:15.938Z,58.64
2024-03-02T20:25:47.935Z,59.88
2024-03-02T20:28:19.064Z,60.28
2024-03-02T20:31:16.209Z,61.40
2024-03-02T20:33:47.160Z,62.78
2024-03-02T20:36:17.486Z,62.89
2024-03-02T20:38:48.516Z,60.26
2024-03-02T20:41:17.837Z,60.23
2024-03-02T20:44:18.245Z,58.11
2024-03-02T20:47:17.043Z,57.81
2024-03-02T20:49:46.984Z,56.81
2024-03-02T20:52:16.416Z,58.45
2024-03-02T20:58:17.062Z,57.39
2024-03-02T21:00:46.480Z,56.62
2024-03-02T21:03:17.746Z,55.51
2024-03-02T21:11:49.904Z,56.13
2024-03-02T21:14:17.880Z,56.03
2024-03-02T21:20:17.723Z,57.41
2024-03-02T21:22:49.264Z,57.25
2024-03-02T21:28:22.477Z,57.23
2024-03-02T21:31:16.949Z,57.61
2024-03-02T21:33:45.218Z,58.20
2024-03-02T21:36:16.509Z,58.32
2024-03-02T21:38:44.688Z,59.81
2024-03-02T21:41:15.620Z,60.64
2024-03-02T21:47:21.625Z,63.49
2024-03-02T21:50:21.844Z,63.40
2024-03-02T21:53:15.649Z,63.18
2024-03-02T21:55:46.312Z,63.95
2024-03-02T21:58:14.422Z,63.35
2024-03-02T22:09:15.559Z,68.24
2024-03-02T22:12:13.771Z,68.88
2024-03-02T22:23:16.508Z,72.56
2024-03-02T22:25:44.478Z,73.38
2024-03-02T22:28:16.146Z,73.96
2024-03-02T22:30:44.141Z,73.23
2024-03-02T22:33:14.761Z,73.76
2024-03-02T22:35:44.459Z,75.09
2024-03-02T22:38:16.810Z,72.78
2024-03-02T22:41:15.602Z,72.54
2024-03-02T22:43:34.249Z,71.29
2024-03-02T22:46:43.196Z,72.58
2024-03-02T22:49:22.644Z,73.33
2024-03-02T22:52:15.105Z,72.57
2024-03-02T22:54:43.133Z,72.66
2024-03-02T22:57:23.293Z,73.79
2024-03-02T23:00:43.091Z,76.31
2024-03-02T23:03:15.138Z,77.86
2024-03-02T23:05:43.032Z,80.62
2024-03-02T23:08:14.567Z,81.49
2024-03-02T23:10:44.031Z,81.79
2024-03-02T23:13:15.816Z,81.22
2024-03-02T23:15:46.193Z,79.62
2024-03-02T23:18:16.369Z,78.69
2024-03-02T23:23:47.550Z,77.15
2024-03-02T23:26:15.669Z,76.47
2024-03-02T23:28:43.841Z,75.23
2024-03-02T23:31:13.248Z,75.29
2024-03-02T23:36:41.851Z,74.61
2024-03-02T23:42:13.095Z,75.33
2024-03-02T23:44:44.549Z,76.12
2024-03-02T23:53:20.753Z,77.39
2024-03-02T23:55:52.571Z,78.11
2024-03-02T23:58:42.794Z,78.84
